createdAt,value
2023-03-06T00:00:33.609Z,1029.87
2023-03-06T00:01:33.580Z,1029.87
2023-03-06T00:02:33.571Z,1029.90
2023-03-06T00:03:33.676Z,1029.92
2023-03-06T00:04:33.560Z,1029.92
2023-03-06T00:05:33.585Z,1029.92
2023-03-06T00:06:33.524Z,1029.89
2023-03-06T00:07:33.518Z,1029.84
2023-03-06T00:08:33.499Z,1029.75
2023-03-06T00:09:33.505Z,1029.71
2023-03-06T00:10:33.475Z,1029.53
2023-03-06T00:11:33.493Z,1029.33
2023-03-06T00:12:33.506Z,1029.06
2023-03-06T00:13:33.442Z,1029.03
2023-03-06T00:14:33.453Z,1028.95
2023-03-06T00:15:33.462Z,1028.92
2023-03-06T00:16:33.474Z,1028.78
2023-03-06T00:17:33.424Z,1028.80
2023-03-06T00:18:33.384Z,1028.80
2023-03-06T00:19:33.387Z,1028.77
2023-03-06T00:20:33.363Z,1028.69
2023-03-06T00:21:33.376Z,1028.60
2023-03-06T00:22:33.362Z,1028.37
2023-03-06T00:23:33.333Z,1028.38
2023-03-06T00:24:33.340Z,1028.41
2023-03-06T00:25:33.313Z,1028.41
2023-03-06T00:26:33.303Z,1028.33
2023-03-06T00:27:33.283Z,1028.30
2023-03-06T00:28:33.615Z,1028.28
2023-03-06T00:29:33.286Z,1028.24
2023-03-06T00:30:33.263Z,1028.32
2023-03-06T00:31:33.309Z,1028.35
2023-03-06T00:32:33.537Z,1028.36
2023-03-06T00:33:33.248Z,1028.35
2023-03-06T00:34:33.238Z,1028.43
2023-03-06T00:35:33.256Z,1028.43
2023-03-06T00:36:33.172Z,1028.41
2023-03-06T00:37:33.168Z,1028.39
2023-03-06T00:38:33.164Z,1028.33
2023-03-06T00:39:33.171Z,1028.30
2023-03-06T00:40:33.150Z,1028.36
2023-03-06T00:41:33.161Z,1028.41
2023-03-06T00:42:33.111Z,1028.63
2023-03-06T00:43:33.091Z,1028.65
2023-03-06T00:44:33.117Z,1028.65
2023-03-06T00:45:33.117Z,1028.67
2023-03-06T00:46:33.074Z,1028.69
2023-03-06T00:47:35.830Z,1028.66
2023-03-06T00:48:33.056Z,1028.64
2023-03-06T00:49:33.042Z,1028.64
2023-03-06T00:50:33.013Z,1028.64
2023-03-06T00:51:33.021Z,1028.65
2023-03-06T00:52:33.001Z,1028.61
2023-03-06T00:53:33.008Z,1028.61
2023-03-06T00:54:32.991Z,1028.62
2023-03-06T00:55:33.281Z,1028.41
2023-03-06T00:56:33.276Z,1028.40
2023-03-06T00:57:39.963Z,1028.42
2023-03-06T00:58:39.941Z,1028.59
2023-03-06T00:59:41.210Z,1028.41
2023-03-06T01:00:39.987Z,1028.41
2023-03-06T01:01:39.938Z,1028.37
2023-03-06T01:02:33.009Z,1028.34
2023-03-06T01:03:32.873Z,1028.30
2023-03-06T01:04:32.852Z,1028.32
2023-03-06T01:05:32.850Z,1028.35
2023-03-06T01:06:32.847Z,1028.38
2023-03-06T01:07:32.834Z,1028.41
2023-03-06T01:08:32.813Z,1028.38
2023-03-06T01:09:32.812Z,1028.38
2023-03-06T01:10:32.788Z,1028.38
2023-03-06T01:11:32.780Z,1028.36
2023-03-06T01:12:32.760Z,1028.38
2023-03-06T01:13:32.745Z,1028.38
2023-03-06T01:14:32.753Z,1028.42
2023-03-06T01:15:32.744Z,1028.39
2023-03-06T01:16:32.801Z,1028.35
2023-03-06T01:17:33.018Z,1028.36
2023-03-06T01:18:32.690Z,1028.35
2023-03-06T01:19:32.688Z,1028.37
2023-03-06T01:20:33.018Z,1028.43
2023-03-06T01:21:32.650Z,1028.37
2023-03-06T01:22:32.640Z,1028.31
2023-03-06T01:23:32.658Z,1028.33
2023-03-06T01:24:32.643Z,1028.35
2023-03-06T01:25:32.609Z,1028.39
2023-03-06T01:26:32.779Z,1028.34
2023-03-06T01:27:32.603Z,1028.33
2023-03-06T01:28:32.869Z,1028.34
2023-03-06T01:29:32.574Z,1028.33
2023-03-06T01:30:32.552Z,1028.39
2023-03-06T01:31:32.627Z,1028.38
2023-03-06T01:32:32.591Z,1028.39
2023-03-06T01:33:32.529Z,1028.40
2023-03-06T01:34:32.509Z,1028.37
2023-03-06T01:35:32.536Z,1028.37
2023-03-06T01:36:32.480Z,1028.41
2023-03-06T01:37:32.472Z,1028.62
2023-03-06T01:38:32.465Z,1028.61
2023-03-06T01:39:32.721Z,1028.42
2023-03-06T01:40:32.539Z,1028.42
2023-03-06T01:41:32.761Z,1028.41
2023-03-06T01:42:32.414Z,1028.44
2023-03-06T01:43:32.396Z,1028.41
2023-03-06T01:44:32.426Z,1028.35
2023-03-06T01:45:34.156Z,1028.30
2023-03-06T01:46:32.380Z,1028.32
2023-03-06T01:47:32.359Z,1028.33
2023-03-06T01:48:32.352Z,1028.32
2023-03-06T01:49:32.344Z,1028.33
2023-03-06T01:50:32.660Z,1028.43
2023-03-06T01:51:32.312Z,1028.40
2023-03-06T01:52:32.298Z,1028.37
2023-03-06T01:53:32.285Z,1028.36
2023-03-06T01:54:32.292Z,1028.35
2023-03-06T01:55:32.581Z,1028.32
2023-03-06T01:56:32.247Z,1028.33
2023-03-06T01:57:32.241Z,1028.34
2023-03-06T01:58:32.516Z,1028.33
2023-03-06T01:59:32.227Z,1028.38
2023-03-06T02:00:33.243Z,1028.39
2023-03-06T02:01:32.205Z,1028.40
2023-03-06T02:02:32.229Z,1028.39
2023-03-06T02:03:32.193Z,1028.36
2023-03-06T02:04:32.221Z,1028.38
2023-03-06T02:05:32.155Z,1028.42
2023-03-06T02:06:32.149Z,1028.64
2023-03-06T02:07:32.448Z,1028.67
2023-03-06T02:08:32.111Z,1028.65
2023-03-06T02:09:32.119Z,1028.61
2023-03-06T02:10:37.056Z,1028.39
2023-03-06T02:11:32.104Z,1028.40
2023-03-06T02:12:32.090Z,1028.40
2023-03-06T02:13:32.063Z,1028.43
2023-03-06T02:14:32.067Z,1028.66
2023-03-06T02:15:32.031Z,1028.63
2023-03-06T02:16:32.055Z,1028.60
2023-03-06T02:17:34.839Z,1028.59
2023-03-06T02:18:32.018Z,1028.43
2023-03-06T02:19:32.010Z,1028.40
2023-03-06T02:20:31.980Z,1028.41
2023-03-06T02:21:32.265Z,1028.40
2023-03-06T02:22:31.978Z,1028.34
2023-03-06T02:23:31.944Z,1028.35
2023-03-06T02:24:31.961Z,1028.41
2023-03-06T02:25:31.920Z,1028.59
2023-03-06T02:26:31.922Z,1028.64
2023-03-06T02:27:31.911Z,1028.60
2023-03-06T02:28:31.891Z,1028.42
2023-03-06T02:29:31.881Z,1028.59
2023-03-06T02:30:31.963Z,1028.61
2023-03-06T02:31:32.204Z,1028.65
2023-03-06T02:32:31.884Z,1028.61
2023-03-06T02:33:31.822Z,1028.42
2023-03-06T02:34:38.842Z,1028.42
2023-03-06T02:35:38.917Z,1028.43
2023-03-06T02:36:39.189Z,1028.61
2023-03-06T02:37:38.799Z,1028.60
2023-03-06T02:38:31.768Z,1028.62
2023-03-06T02:39:31.787Z,1028.63
2023-03-06T02:40:31.739Z,1028.66
2023-03-06T02:41:32.111Z,1028.66
2023-03-06T02:42:33.628Z,1028.67
2023-03-06T02:43:31.746Z,1028.68
2023-03-06T02:44:31.731Z,1028.68
2023-03-06T02:45:31.689Z,1028.67
2023-03-06T02:46:31.737Z,1028.65
2023-03-06T02:47:31.681Z,1028.65
2023-03-06T02:48:31.659Z,1028.64
2023-03-06T02:49:31.642Z,1028.64
2023-03-06T02:50:31.648Z,1028.62
2023-03-06T02:51:31.665Z,1028.63
2023-03-06T02:52:31.637Z,1028.65
2023-03-06T02:53:31.617Z,1028.62
2023-03-06T02:54:31.594Z,1028.66
2023-03-06T02:55:31.582Z,1028.67
2023-03-06T02:56:31.590Z,1028.67
2023-03-06T02:57:31.552Z,1028.69
2023-03-06T02:58:31.551Z,1028.71
2023-03-06T02:59:31.513Z,1028.65
2023-03-06T03:00:31.540Z,1028.68
2023-03-06T03:01:31.858Z,1028.70
2023-03-06T03:02:31.511Z,1028.72
2023-03-06T03:03:31.484Z,1028.74
2023-03-06T03:04:31.591Z,1028.71
2023-03-06T03:05:31.455Z,1028.69
2023-03-06T03:06:31.450Z,1028.68
2023-03-06T03:07:31.430Z,1028.65
2023-03-06T03:08:31.412Z,1028.43
2023-03-06T03:09:31.426Z,1028.42
2023-03-06T03:10:31.733Z,1028.39
2023-03-06T03:11:31.382Z,1028.38
2023-03-06T03:12:31.412Z,1028.39
2023-03-06T03:13:31.370Z,1028.40
2023-03-06T03:14:31.376Z,1028.59
2023-03-06T03:15:31.337Z,1028.42
2023-03-06T03:16:31.331Z,1028.39
2023-03-06T03:17:31.330Z,1028.39
2023-03-06T03:18:31.321Z,1028.39
2023-03-06T03:19:31.300Z,1028.44
2023-03-06T03:20:31.275Z,1028.39
2023-03-06T03:21:31.294Z,1028.40
2023-03-06T03:22:31.286Z,1028.38
2023-03-06T03:23:31.509Z,1028.36
2023-03-06T03:24:31.267Z,1028.37
2023-03-06T03:25:31.238Z,1028.32
2023-03-06T03:26:31.210Z,1028.36
2023-03-06T03:27:31.256Z,1028.36
2023-03-06T03:28:31.192Z,1028.34
2023-03-06T03:29:31.197Z,1028.33
2023-03-06T03:30:31.177Z,1028.30
2023-03-06T03:31:33.904Z,1028.32
2023-03-06T03:32:31.195Z,1028.33
2023-03-06T03:33:31.137Z,1028.27
2023-03-06T03:34:31.126Z,1028.22
2023-03-06T03:35:31.158Z,1028.21
2023-03-06T03:36:31.094Z,1028.20
2023-03-06T03:37:31.078Z,1028.17
2023-03-06T03:38:31.102Z,1028.21
2023-03-06T03:39:31.077Z,1028.20
2023-03-06T03:40:31.049Z,1028.26
2023-03-06T03:41:31.054Z,1028.30
2023-03-06T03:42:31.018Z,1028.32
2023-03-06T03:43:31.050Z,1028.39
2023-03-06T03:44:31.013Z,1028.37
2023-03-06T03:45:31.010Z,1028.59
2023-03-06T03:46:31.005Z,1028.61
2023-03-06T03:47:30.971Z,1028.43
2023-03-06T03:48:30.973Z,1028.40
2023-03-06T03:49:30.959Z,1028.62
2023-03-06T03:50:30.934Z,1028.62
2023-03-06T03:51:31.221Z,1028.41
2023-03-06T03:52:30.919Z,1028.59
2023-03-06T03:53:30.936Z,1028.40
2023-03-06T03:54:30.899Z,1028.41
2023-03-06T03:55:30.881Z,1028.60
2023-03-06T03:56:30.878Z,1028.65
2023-03-06T03:57:30.855Z,1028.64
2023-03-06T03:58:30.846Z,1028.62
2023-03-06T03:59:30.853Z,1028.63
2023-03-06T04:00:30.838Z,1028.41
2023-03-06T04:01:30.821Z,1028.64
2023-03-06T04:02:30.786Z,1028.68
2023-03-06T04:03:30.810Z,1028.70
2023-03-06T04:04:30.789Z,1028.75
2023-03-06T04:05:30.756Z,1028.78
2023-03-06T04:06:30.764Z,1028.77
2023-03-06T04:07:30.737Z,1028.79
2023-03-06T04:08:37.757Z,1028.71
2023-03-06T04:09:39.332Z,1028.72
2023-03-06T04:10:37.709Z,1028.75
2023-03-06T04:11:37.739Z,1028.78
2023-03-06T04:12:37.701Z,1028.80
2023-03-06T04:13:37.705Z,1028.81
2023-03-06T04:14:37.683Z,1028.83
2023-03-06T04:15:30.633Z,1028.79
2023-03-06T04:16:30.645Z,1028.77
2023-03-06T04:17:30.616Z,1028.76
2023-03-06T04:18:30.636Z,1028.79
2023-03-06T04:19:30.640Z,1028.74
2023-03-06T04:20:30.603Z,1028.78
2023-03-06T04:21:30.586Z,1028.80
2023-03-06T04:22:30.574Z,1028.81
2023-03-06T04:23:30.563Z,1028.81
2023-03-06T04:24:30.844Z,1028.78
2023-03-06T04:25:30.567Z,1028.81
2023-03-06T04:26:30.512Z,1028.86
2023-03-06T04:27:30.544Z,1028.82
2023-03-06T04:28:30.533Z,1028.81
2023-03-06T04:29:30.486Z,1028.73
2023-03-06T04:30:30.477Z,1028.72
2023-03-06T04:31:30.493Z,1028.71
2023-03-06T04:32:30.551Z,1028.64
2023-03-06T04:33:30.491Z,1028.43
2023-03-06T04:34:30.448Z,1028.59
2023-03-06T04:35:30.508Z,1028.40
2023-03-06T04:36:30.418Z,1028.41
2023-03-06T04:37:30.397Z,1028.42
2023-03-06T04:38:30.393Z,1028.43
2023-03-06T04:39:30.393Z,1028.60
2023-03-06T04:40:30.358Z,1028.63
2023-03-06T04:41:30.358Z,1028.64
2023-03-06T04:42:30.339Z,1028.61
2023-03-06T04:43:30.620Z,1028.66
2023-03-06T04:44:30.329Z,1028.70
2023-03-06T04:45:30.327Z,1028.73
2023-03-06T04:46:30.296Z,1028.70
2023-03-06T04:47:30.280Z,1028.64
2023-03-06T04:48:30.261Z,1028.61
2023-03-06T04:49:30.300Z,1028.65
2023-03-06T04:50:30.239Z,1028.61
2023-03-06T04:51:30.260Z,1028.60
2023-03-06T04:52:30.262Z,1028.63
2023-03-06T04:53:30.255Z,1028.65
2023-03-06T04:54:30.191Z,1028.64
2023-03-06T04:55:30.202Z,1028.64
2023-03-06T04:56:30.179Z,1028.64
2023-03-06T04:57:30.162Z,1028.63
2023-03-06T04:58:30.170Z,1028.62
2023-03-06T04:59:30.165Z,1028.61
2023-03-06T05:00:30.125Z,1028.37
2023-03-06T05:01:30.120Z,1028.28
2023-03-06T05:02:30.217Z,1028.31
2023-03-06T05:03:30.127Z,1028.25
2023-03-06T05:04:30.111Z,1028.24
2023-03-06T05:05:30.070Z,1028.11
2023-03-06T05:06:30.070Z,1028.11
2023-03-06T05:07:30.047Z,1028.11
2023-03-06T05:08:30.348Z,1028.10
2023-03-06T05:09:30.040Z,1028.07
2023-03-06T05:10:30.015Z,1028.08
2023-03-06T05:11:29.994Z,1028.15
2023-03-06T05:12:29.995Z,1028.15
2023-03-06T05:13:30.025Z,1028.11
2023-03-06T05:14:29.966Z,1028.11
2023-03-06T05:15:29.950Z,1028.09
2023-03-06T05:16:30.246Z,1028.08
2023-03-06T05:17:29.932Z,1028.10
2023-03-06T05:18:29.915Z,1028.12
2023-03-06T05:19:29.924Z,1028.18
2023-03-06T05:20:30.209Z,1028.19
2023-03-06T05:21:29.884Z,1028.16
2023-03-06T05:22:29.878Z,1028.17
2023-03-06T05:23:29.855Z,1028.18
2023-03-06T05:24:29.866Z,1028.23
2023-03-06T05:25:29.873Z,1028.24
2023-03-06T05:26:29.830Z,1028.21
2023-03-06T05:27:30.124Z,1028.18
2023-03-06T05:28:29.804Z,1028.16
2023-03-06T05:29:29.801Z,1028.13
2023-03-06T05:30:29.772Z,1028.12
2023-03-06T05:31:29.781Z,1028.13
2023-03-06T05:32:29.839Z,1028.15
2023-03-06T05:33:29.742Z,1028.14
2023-03-06T05:34:29.780Z,1028.09
2023-03-06T05:35:29.753Z,1028.07
2023-03-06T05:36:29.711Z,1028.09
2023-03-06T05:37:29.703Z,1028.11
2023-03-06T05:38:29.677Z,1028.19
2023-03-06T05:39:29.987Z,1028.18
2023-03-06T05:40:29.661Z,1028.21
2023-03-06T05:41:29.670Z,1028.16
2023-03-06T05:42:29.661Z,1028.14
2023-03-06T05:43:29.644Z,1028.13
2023-03-06T05:44:29.619Z,1028.07
2023-03-06T05:45:29.608Z,1028.05
2023-03-06T05:46:37.594Z,1028.05
2023-03-06T05:47:36.609Z,1028.04
2023-03-06T05:48:36.608Z,1028.04
2023-03-06T05:49:37.590Z,1028.04
2023-03-06T05:50:29.541Z,1028.11
2023-03-06T05:51:29.540Z,1028.10
2023-03-06T05:52:29.523Z,1028.12
2023-03-06T05:53:29.526Z,1028.13
2023-03-06T05:54:29.533Z,1028.14
2023-03-06T05:55:29.556Z,1028.16
2023-03-06T05:56:29.497Z,1028.12
2023-03-06T05:57:29.472Z,1028.15
2023-03-06T05:58:29.457Z,1028.11
2023-03-06T05:59:29.480Z,1028.09
2023-03-06T06:00:29.452Z,1028.14
2023-03-06T06:01:29.434Z,1028.11
2023-03-06T06:02:29.468Z,1028.15
2023-03-06T06:03:29.713Z,1028.16
2023-03-06T06:04:29.425Z,1028.19
2023-03-06T06:05:29.389Z,1028.16
2023-03-06T06:06:29.367Z,1028.24
2023-03-06T06:07:29.366Z,1028.21
2023-03-06T06:08:29.341Z,1028.26
2023-03-06T06:09:29.366Z,1028.25
2023-03-06T06:10:29.321Z,1028.21
2023-03-06T06:11:29.306Z,1028.24
2023-03-06T06:12:29.298Z,1028.30
2023-03-06T06:13:34.209Z,1028.23
2023-03-06T06:14:29.276Z,1028.18
2023-03-06T06:15:29.256Z,1028.21
2023-03-06T06:16:29.245Z,1028.26
2023-03-06T06:17:29.247Z,1028.31
2023-03-06T06:18:29.224Z,1028.27
2023-03-06T06:19:29.490Z,1028.33
2023-03-06T06:20:29.199Z,1028.35
2023-03-06T06:21:29.197Z,1028.35
2023-03-06T06:22:29.186Z,1028.40
2023-03-06T06:23:29.167Z,1028.62
2023-03-06T06:24:29.196Z,1028.64
2023-03-06T06:25:29.436Z,1028.64
2023-03-06T06:26:29.131Z,1028.65
2023-03-06T06:27:29.122Z,1028.67
2023-03-06T06:28:29.108Z,1028.61
2023-03-06T06:29:29.110Z,1028.63
2023-03-06T06:30:29.098Z,1028.58
2023-03-06T06:31:29.104Z,1028.59
2023-03-06T06:32:29.104Z,1028.42
2023-03-06T06:33:29.051Z,1028.40
2023-03-06T06:34:29.207Z,1028.64
2023-03-06T06:35:29.062Z,1028.68
2023-03-06T06:36:29.015Z,1028.72
2023-03-06T06:37:29.009Z,1028.73
2023-03-06T06:38:28.999Z,1028.71
2023-03-06T06:39:29.034Z,1028.68
2023-03-06T06:40:28.960Z,1028.69
2023-03-06T06:41:53.679Z,1028.71
2023-03-06T06:42:36.915Z,1028.75
2023-03-06T06:43:29.939Z,1028.75
2023-03-06T06:44:28.941Z,1028.74
2023-03-06T06:45:28.921Z,1028.77
2023-03-06T06:47:19.245Z,1028.80
2023-03-06T06:47:29.948Z,1028.84
2023-03-06T06:48:28.898Z,1028.85
2023-03-06T06:49:28.887Z,1028.85
2023-03-06T06:50:28.910Z,1028.73
2023-03-06T06:51:28.856Z,1028.78
2023-03-06T06:52:28.865Z,1028.79
2023-03-06T06:53:28.834Z,1028.82
2023-03-06T06:54:28.819Z,1028.86
2023-03-06T06:55:29.079Z,1028.86
2023-03-06T06:56:28.802Z,1028.81
2023-03-06T06:57:28.785Z,1028.83
2023-03-06T06:58:28.778Z,1028.77
2023-03-06T06:59:28.768Z,1028.74
2023-03-06T07:00:28.756Z,1028.75
2023-03-06T07:01:28.780Z,1028.74
2023-03-06T07:02:28.720Z,1028.78
2023-03-06T07:03:28.723Z,1028.69
2023-03-06T07:04:28.711Z,1028.66
2023-03-06T07:05:28.689Z,1028.66
2023-03-06T07:06:28.693Z,1028.63
2023-03-06T07:07:28.665Z,1028.63
2023-03-06T07:08:28.649Z,1028.61
2023-03-06T07:09:28.942Z,1028.63
2023-03-06T07:10:28.634Z,1028.69
2023-03-06T07:11:28.621Z,1028.72
2023-03-06T07:12:28.600Z,1028.74
2023-03-06T07:13:28.602Z,1028.77
2023-03-06T07:14:28.600Z,1028.77
2023-03-06T07:15:28.620Z,1028.78
2023-03-06T07:16:28.571Z,1028.86
2023-03-06T07:17:28.549Z,1028.88
2023-03-06T07:18:28.546Z,1028.95
2023-03-06T07:19:28.524Z,1028.97
2023-03-06T07:20:35.528Z,1029.01
2023-03-06T07:21:35.508Z,1029.02
2023-03-06T07:22:31.922Z,1029.08
2023-03-06T07:23:29.471Z,1029.13
2023-03-06T07:24:28.468Z,1029.08
2023-03-06T07:25:35.484Z,1029.28
2023-03-06T07:26:28.455Z,1029.30
2023-03-06T07:27:28.460Z,1029.01
2023-03-06T07:28:28.422Z,1028.87
2023-03-06T07:29:28.453Z,1028.87
2023-03-06T07:30:28.427Z,1028.95
2023-03-06T07:31:28.506Z,1028.93
2023-03-06T07:32:28.432Z,1029.03
2023-03-06T07:33:28.363Z,1028.92
2023-03-06T07:34:28.387Z,1028.97
2023-03-06T07:35:28.344Z,1028.90
2023-03-06T07:36:28.324Z,1028.99
2023-03-06T07:37:28.328Z,1029.11
2023-03-06T07:38:28.312Z,1029.38
2023-03-06T07:39:28.336Z,1029.44
2023-03-06T07:40:28.342Z,1029.53
2023-03-06T07:41:28.292Z,1029.64
2023-03-06T07:42:28.290Z,1029.75
2023-03-06T07:43:28.256Z,1029.76
2023-03-06T07:44:28.257Z,1029.70
2023-03-06T07:45:28.238Z,1029.59
2023-03-06T07:46:28.390Z,1029.52
2023-03-06T07:47:28.221Z,1029.51
2023-03-06T07:48:28.198Z,1029.48
2023-03-06T07:49:28.519Z,1029.41
2023-03-06T07:50:28.182Z,1029.29
2023-03-06T07:51:28.160Z,1029.32
2023-03-06T07:52:28.159Z,1029.06
2023-03-06T07:53:28.151Z,1029.08
2023-03-06T07:54:29.870Z,1029.30
2023-03-06T07:55:28.150Z,1029.37
2023-03-06T07:56:28.113Z,1029.41
2023-03-06T07:57:28.080Z,1029.40
2023-03-06T07:58:28.081Z,1029.46
2023-03-06T07:59:28.090Z,1029.37
2023-03-06T08:00:28.051Z,1029.38
2023-03-06T08:01:28.064Z,1029.33
2023-03-06T08:02:28.049Z,1029.10
2023-03-06T08:03:28.059Z,1029.28
2023-03-06T08:04:29.114Z,1029.33
2023-03-06T08:05:28.005Z,1029.36
2023-03-06T08:06:28.001Z,1029.32
2023-03-06T08:07:27.973Z,1029.28
2023-03-06T08:08:27.965Z,1029.33
2023-03-06T08:09:27.971Z,1029.46
2023-03-06T08:10:27.942Z,1029.53
2023-03-06T08:11:27.965Z,1029.56
2023-03-06T08:12:27.930Z,1029.62
2023-03-06T08:13:27.907Z,1029.68
2023-03-06T08:14:27.923Z,1029.73
2023-03-06T08:15:27.897Z,1029.78
2023-03-06T08:16:27.915Z,1029.72
2023-03-06T08:17:27.869Z,1029.73
2023-03-06T08:18:27.847Z,1029.67
2023-03-06T08:19:27.846Z,1029.65
2023-03-06T08:20:27.837Z,1029.65
2023-03-06T08:21:27.827Z,1029.63
2023-03-06T08:22:27.801Z,1029.72
2023-03-06T08:23:27.822Z,1029.73
2023-03-06T08:24:27.777Z,1029.74
2023-03-06T08:25:27.773Z,1029.74
2023-03-06T08:26:27.789Z,1029.71
2023-03-06T08:27:27.736Z,1029.60
2023-03-06T08:28:27.726Z,1029.65
2023-03-06T08:29:27.861Z,1029.75
2023-03-06T08:30:27.714Z,1029.73
2023-03-06T08:31:27.803Z,1029.80
2023-03-06T08:32:27.718Z,1029.96
2023-03-06T08:33:27.745Z,1030.03
2023-03-06T08:34:27.687Z,1030.13
2023-03-06T08:35:27.702Z,1030.25
2023-03-06T08:36:27.718Z,1030.35
2023-03-06T08:37:27.623Z,1030.41
2023-03-06T08:38:27.608Z,1030.38
2023-03-06T08:39:30.494Z,1030.44
2023-03-06T08:40:27.629Z,1030.49
2023-03-06T08:41:27.580Z,1030.73
2023-03-06T08:42:27.598Z,1030.60
2023-03-06T08:43:27.646Z,1030.61
2023-03-06T08:44:27.590Z,1030.55
2023-03-06T08:45:27.602Z,1030.64
2023-03-06T08:46:27.530Z,1030.74
2023-03-06T08:47:27.797Z,1030.81
2023-03-06T08:48:27.496Z,1030.82
2023-03-06T08:49:27.510Z,1031.06
2023-03-06T08:50:27.497Z,1031.26
2023-03-06T08:51:27.464Z,1031.41
2023-03-06T08:52:27.460Z,1031.56
2023-03-06T08:53:41.772Z,1031.64
2023-03-06T08:54:28.445Z,1031.74
2023-03-06T08:55:27.466Z,1031.56
2023-03-06T08:56:27.424Z,1031.40
2023-03-06T08:57:27.389Z,1031.26
2023-03-06T08:58:34.426Z,1031.30
2023-03-06T08:59:34.823Z,1031.24
2023-03-06T09:00:27.397Z,1031.19
2023-03-06T09:01:27.478Z,1031.17
2023-03-06T09:02:27.441Z,1031.07
2023-03-06T09:03:27.325Z,1030.99
2023-03-06T09:04:27.613Z,1030.91
2023-03-06T09:05:27.338Z,1030.88
2023-03-06T09:06:27.304Z,1030.81
2023-03-06T09:07:27.302Z,1030.82
2023-03-06T09:08:27.274Z,1030.78
2023-03-06T09:09:27.282Z,1030.77
2023-03-06T09:10:27.309Z,1030.74
2023-03-06T09:11:27.254Z,1030.72
2023-03-06T09:12:28.113Z,1030.73
2023-03-06T09:13:27.275Z,1030.73
2023-03-06T09:14:27.310Z,1030.66
2023-03-06T09:15:27.213Z,1030.86
2023-03-06T09:16:27.255Z,1031.06
2023-03-06T09:17:27.229Z,1031.21
2023-03-06T09:18:27.165Z,1031.20
2023-03-06T09:19:27.146Z,1031.13
2023-03-06T09:20:27.159Z,1030.95
2023-03-06T09:21:27.142Z,1030.96
2023-03-06T09:22:27.137Z,1031.23
2023-03-06T09:23:27.200Z,1031.44
2023-03-06T09:24:27.483Z,1031.31
2023-03-06T09:25:27.130Z,1031.20
2023-03-06T09:26:39.590Z,1031.07
2023-03-06T09:27:28.074Z,1030.83
2023-03-06T09:28:27.059Z,1030.73
2023-03-06T09:29:27.041Z,1030.78
2023-03-06T09:30:27.059Z,1030.77
2023-03-06T09:31:27.034Z,1030.67
2023-03-06T09:32:27.064Z,1030.77
2023-03-06T09:33:27.015Z,1030.90
2023-03-06T09:34:27.279Z,1031.10
2023-03-06T09:35:26.995Z,1031.28
2023-03-06T09:36:26.985Z,1031.38
2023-03-06T09:37:26.960Z,1031.49
2023-03-06T09:38:26.955Z,1031.50
2023-03-06T09:39:26.923Z,1031.38
2023-03-06T09:40:26.963Z,1031.31
2023-03-06T09:41:26.933Z,1031.32
2023-03-06T09:42:26.921Z,1031.27
2023-03-06T09:43:26.883Z,1031.23
2023-03-06T09:44:27.203Z,1031.23
2023-03-06T09:45:26.876Z,1031.22
2023-03-06T09:46:26.916Z,1031.19
2023-03-06T09:47:26.864Z,1031.37
2023-03-06T09:48:26.831Z,1031.60
2023-03-06T09:49:26.822Z,1031.91
2023-03-06T09:50:26.818Z,1032.16
2023-03-06T09:51:26.807Z,1032.18
2023-03-06T09:52:26.787Z,1031.89
2023-03-06T09:53:26.806Z,1031.77
2023-03-06T09:54:29.570Z,1031.71
2023-03-06T09:55:26.772Z,1031.77
2023-03-06T09:56:26.745Z,1031.65
2023-03-06T09:57:26.738Z,1031.63
2023-03-06T09:58:26.747Z,1031.45
2023-03-06T09:59:26.711Z,1031.36
2023-03-06T10:00:26.706Z,1031.40
2023-03-06T10:01:26.692Z,1031.55
2023-03-06T10:02:26.842Z,1031.58
2023-03-06T10:03:26.711Z,1031.57
2023-03-06T10:04:26.958Z,1031.51
2023-03-06T10:05:26.650Z,1031.46
2023-03-06T10:06:26.650Z,1031.49
2023-03-06T10:07:26.638Z,1031.55
2023-03-06T10:08:26.604Z,1031.73
2023-03-06T10:09:26.602Z,1031.86
2023-03-06T10:10:26.591Z,1031.85
2023-03-06T10:11:26.603Z,1031.95
2023-03-06T10:12:26.572Z,1032.03
2023-03-06T10:13:26.541Z,1032.15
2023-03-06T10:14:26.602Z,1032.15
2023-03-06T10:15:26.621Z,1032.11
2023-03-06T10:16:26.538Z,1032.12
2023-03-06T10:17:26.515Z,1032.18
2023-03-06T10:18:26.495Z,1032.24
2023-03-06T10:19:26.493Z,1032.25
2023-03-06T10:20:26.489Z,1032.07
2023-03-06T10:21:26.488Z,1031.95
2023-03-06T10:22:26.441Z,1031.94
2023-03-06T10:23:26.467Z,1031.87
2023-03-06T10:24:26.462Z,1031.86
2023-03-06T10:25:26.444Z,1031.95
2023-03-06T10:26:26.548Z,1032.08
2023-03-06T10:27:26.393Z,1032.14
2023-03-06T10:28:26.385Z,1032.17
2023-03-06T10:29:26.370Z,1032.23
2023-03-06T10:30:26.599Z,1032.26
2023-03-06T10:31:26.402Z,1032.49
2023-03-06T10:32:27.949Z,1032.64
2023-03-06T10:33:33.354Z,1032.88
2023-03-06T10:34:33.333Z,1032.87
2023-03-06T10:35:33.368Z,1032.87
2023-03-06T10:36:34.581Z,1033.11
2023-03-06T10:37:33.294Z,1033.32
2023-03-06T10:38:26.617Z,1033.32
2023-03-06T10:39:26.525Z,1033.31
2023-03-06T10:40:26.591Z,1033.13
2023-03-06T10:41:26.264Z,1033.09
2023-03-06T10:42:29.040Z,1032.89
2023-03-06T10:43:26.621Z,1033.08
2023-03-06T10:44:26.554Z,1033.31
2023-03-06T10:45:26.205Z,1033.33
2023-03-06T10:46:26.347Z,1033.37
2023-03-06T10:47:28.063Z,1033.37
2023-03-06T10:48:28.133Z,1033.36
2023-03-06T10:49:27.972Z,1033.54
2023-03-06T10:50:26.139Z,1033.61
2023-03-06T10:51:26.517Z,1033.80
2023-03-06T10:52:26.106Z,1033.58
2023-03-06T10:53:26.108Z,1033.62
2023-03-06T10:54:26.392Z,1033.86
2023-03-06T10:55:26.096Z,1034.04
2023-03-06T10:56:28.902Z,1033.82
2023-03-06T10:57:26.066Z,1033.85
2023-03-06T10:58:26.039Z,1033.82
2023-03-06T10:59:26.035Z,1034.06
2023-03-06T11:00:26.036Z,1033.86
2023-03-06T11:01:26.023Z,1033.87
2023-03-06T11:02:26.019Z,1034.03
2023-03-06T11:03:25.974Z,1034.05
2023-03-06T11:04:26.035Z,1034.09
2023-03-06T11:05:25.975Z,1034.07
2023-03-06T11:06:25.945Z,1033.84
2023-03-06T11:07:26.121Z,1033.81
2023-03-06T11:08:25.928Z,1033.85
2023-03-06T11:09:25.914Z,1034.04
2023-03-06T11:10:25.901Z,1034.02
2023-03-06T11:11:37.099Z,1033.81
2023-03-06T11:12:26.905Z,1033.60
2023-03-06T11:13:25.865Z,1033.55
2023-03-06T11:14:27.666Z,1033.33
2023-03-06T11:15:25.873Z,1033.34
2023-03-06T11:16:26.154Z,1033.34
2023-03-06T11:17:25.813Z,1033.27
2023-03-06T11:18:25.806Z,1033.27
2023-03-06T11:19:25.792Z,1033.09
2023-03-06T11:20:25.808Z,1033.09
2023-03-06T11:21:25.794Z,1033.07
2023-03-06T11:22:25.795Z,1033.09
2023-03-06T11:23:25.743Z,1033.26
2023-03-06T11:24:25.749Z,1033.29
2023-03-06T11:25:25.741Z,1033.33
2023-03-06T11:26:25.739Z,1033.33
2023-03-06T11:27:25.710Z,1033.30
2023-03-06T11:28:25.692Z,1033.30
2023-03-06T11:29:25.786Z,1033.32
2023-03-06T11:30:25.672Z,1033.56
2023-03-06T11:31:25.685Z,1033.82
2023-03-06T11:32:25.778Z,1034.06
2023-03-06T11:33:25.634Z,1034.05
2023-03-06T11:34:25.613Z,1034.10
2023-03-06T11:35:25.658Z,1034.31
2023-03-06T11:36:25.583Z,1034.37
2023-03-06T11:37:25.583Z,1034.55
2023-03-06T11:38:25.560Z,1034.31
2023-03-06T11:39:25.564Z,1034.27
2023-03-06T11:40:25.573Z,1034.31
2023-03-06T11:41:25.529Z,1034.29
2023-03-06T11:42:25.553Z,1034.35
2023-03-06T11:43:25.527Z,1034.35
2023-03-06T11:44:25.515Z,1034.08
2023-03-06T11:45:25.519Z,1033.81
2023-03-06T11:46:25.534Z,1033.60
2023-03-06T11:47:25.469Z,1033.58
2023-03-06T11:48:25.455Z,1033.84
2023-03-06T11:49:25.500Z,1034.13
2023-03-06T11:50:25.813Z,1034.56
2023-03-06T11:51:25.450Z,1034.62
2023-03-06T11:52:25.417Z,1034.55
2023-03-06T11:53:25.419Z,1034.10
2023-03-06T11:54:25.376Z,1034.27
2023-03-06T11:55:25.400Z,1034.30
2023-03-06T11:56:25.373Z,1034.32
2023-03-06T11:57:25.356Z,1034.30
2023-03-06T11:58:25.326Z,1034.00
2023-03-06T11:59:25.331Z,1034.02
2023-03-06T12:00:25.317Z,1034.07
2023-03-06T12:01:25.307Z,1034.31
2023-03-06T12:02:25.340Z,1034.50
2023-03-06T12:03:25.278Z,1034.27
2023-03-06T12:04:25.286Z,1034.06
2023-03-06T12:05:25.309Z,1034.08